sensor_id;sensor_type;location;lat;lon;timestamp;pressure;altitude;pressure_sealevel;temperature;humidity
6532;BME280;3299;42.004;24.868;2023-02-18T00:01:54;98945.97;;;8.69;48.04
6532;BME280;3299;42.004;24.868;2023-02-18T00:04:20;98923.66;;;8.53;48.20
6532;BME280;3299;42.004;24.868;2023-02-18T00:06:45;98949.84;;;8.61;48.52
6532;BME280;3299;42.004;24.868;2023-02-18T00:09:11;98865.69;;;8.10;48.65
6532;BME280;3299;42.004;24.868;2023-02-18T00:11:37;98893.25;;;8.27;49.07
6532;BME280;3299;42.004;24.868;2023-02-18T00:14:05;98944.84;;;8.42;49.28
6532;BME280;3299;42.004;24.868;2023-02-18T00:16:32;98886.34;;;7.93;49.65
6532;BME280;3299;42.004;24.868;2023-02-18T00:19:00;98949.56;;;8.17;49.82
6532;BME280;3299;42.004;24.868;2023-02-18T00:21:26;98886.75;;;7.86;49.70
6532;BME280;3299;42.004;24.868;2023-02-18T00:23:52;98936.81;;;8.14;49.95
6532;BME280;3299;42.004;24.868;2023-02-18T00:26:19;98867.13;;;7.83;49.29
6532;BME280;3299;42.004;24.868;2023-02-18T00:28:45;98908.59;;;8.11;49.26
6532;BME280;3299;42.004;24.868;2023-02-18T00:31:16;98929.41;;;8.25;49.35
6532;BME280;3299;42.004;24.868;2023-02-18T00:33:42;98876.50;;;7.84;49.63
6532;BME280;3299;42.004;24.868;2023-02-18T00:36:10;98872.41;;;7.80;49.94
6532;BME280;3299;42.004;24.868;2023-02-18T00:38:36;98861.50;;;7.75;49.94
6532;BME280;3299;42.004;24.868;2023-02-18T00:41:02;98869.22;;;7.75;49.84
6532;BME280;3299;42.004;24.868;2023-02-18T00:43:28;98897.09;;;8.01;49.48
6532;BME280;3299;42.004;24.868;2023-02-18T00:45:54;98911.03;;;7.97;49.39
6532;BME280;3299;42.004;24.868;2023-02-18T00:48:20;98910.28;;;8.12;49.24
6532;BME280;3299;42.004;24.868;2023-02-18T00:50:46;98848.00;;;7.70;49.69
6532;BME280;3299;42.004;24.868;2023-02-18T00:53:12;98857.56;;;7.85;49.73
6532;BME280;3299;42.004;24.868;2023-02-18T00:55:44;98901.78;;;8.10;49.37
6532;BME280;3299;42.004;24.868;2023-02-18T00:58:12;98904.34;;;8.10;49.67
6532;BME280;3299;42.004;24.868;2023-02-18T01:00:38;98848.63;;;7.75;49.69
6532;BME280;3299;42.004;24.868;2023-02-18T01:03:04;98836.06;;;7.69;49.94
6532;BME280;3299;42.004;24.868;2023-02-18T01:05:31;98862.03;;;7.82;50.07
6532;BME280;3299;42.004;24.868;2023-02-18T01:07:57;98821.47;;;7.53;50.56
6532;BME280;3299;42.004;24.868;2023-02-18T01:10:22;98779.81;;;7.28;50.01
6532;BME280;3299;42.004;24.868;2023-02-18T01:12:48;98775.50;;;7.28;50.54
6532;BME280;3299;42.004;24.868;2023-02-18T01:15:16;98806.69;;;7.56;50.47
6532;BME280;3299;42.004;24.868;2023-02-18T01:17:42;98763.22;;;7.33;50.42
6532;BME280;3299;42.004;24.868;2023-02-18T01:20:08;98841.19;;;7.86;50.40
6532;BME280;3299;42.004;24.868;2023-02-18T01:22:34;98840.72;;;7.95;50.21
6532;BME280;3299;42.004;24.868;2023-02-18T01:25:00;98829.75;;;7.92;50.04
6532;BME280;3299;42.004;24.868;2023-02-18T01:27:25;98842.47;;;7.95;49.85
6532;BME280;3299;42.004;24.868;2023-02-18T01:29:51;98778.06;;;7.62;50.67
6532;BME280;3299;42.004;24.868;2023-02-18T01:32:16;98787.91;;;7.71;50.27
6532;BME280;3299;42.004;24.868;2023-02-18T01:34:42;98824.34;;;7.96;49.84
6532;BME280;3299;42.004;24.868;2023-02-18T01:37:07;98811.75;;;8.07;49.52
6532;BME280;3299;42.004;24.868;2023-02-18T01:39:32;98767.06;;;7.91;48.69
6532;BME280;3299;42.004;24.868;2023-02-18T01:42:01;98808.84;;;8.13;49.13
6532;BME280;3299;42.004;24.868;2023-02-18T01:44:27;98809.00;;;8.10;49.25
6532;BME280;3299;42.004;24.868;2023-02-18T01:46:53;98796.03;;;7.96;49.00
6532;BME280;3299;42.004;24.868;2023-02-18T01:49:31;98764.41;;;7.77;49.49
6532;BME280;3299;42.004;24.868;2023-02-18T01:52:11;98748.66;;;7.66;49.22
6532;BME280;3299;42.004;24.868;2023-02-18T01:54:53;98806.84;;;8.03;48.95
6532;BME280;3299;42.004;24.868;2023-02-18T01:57:32;98773.00;;;7.76;49.03
6532;BME280;3299;42.004;24.868;2023-02-18T02:00:04;98798.53;;;7.98;48.83
6532;BME280;3299;42.004;24.868;2023-02-18T02:02:31;98752.25;;;7.79;48.74
6532;BME280;3299;42.004;24.868;2023-02-18T02:04:59;98822.97;;;8.23;48.85
6532;BME280;3299;42.004;24.868;2023-02-18T02:07:25;98720.78;;;7.57;48.59
6532;BME280;3299;42.004;24.868;2023-02-18T02:09:55;98785.03;;;7.93;48.56
6532;BME280;3299;42.004;24.868;2023-02-18T02:12:46;98817.34;;;8.15;48.63
6532;BME280;3299;42.004;24.868;2023-02-18T02:21:19;98831.00;;;8.17;48.94
6532;BME280;3299;42.004;24.868;2023-02-18T02:24:30;98832.69;;;8.01;49.56
6532;BME280;3299;42.004;24.868;2023-02-18T02:42:49;98821.38;;;8.21;47.67
6532;BME280;3299;42.004;24.868;2023-02-18T02:45:26;98842.03;;;8.36;47.53
6532;BME280;3299;42.004;24.868;2023-02-18T02:50:27;98847.34;;;8.49;47.06
6532;BME280;3299;42.004;24.868;2023-02-18T02:53:00;98837.03;;;8.49;47.15
6532;BME280;3299;42.004;24.868;2023-02-18T02:55:26;98781.81;;;8.22;46.34
6532;BME280;3299;42.004;24.868;2023-02-18T02:57:54;98786.38;;;8.48;46.41
6532;BME280;3299;42.004;24.868;2023-02-18T03:11:43;98806.41;;;8.27;47.55
6532;BME280;3299;42.004;24.868;2023-02-18T03:14:27;98803.69;;;8.30;47.65
6532;BME280;3299;42.004;24.868;2023-02-18T03:17:06;98763.44;;;7.95;47.46
6532;BME280;3299;42.004;24.868;2023-02-18T03:22:24;98805.38;;;8.14;48.21
6532;BME280;3299;42.004;24.868;2023-02-18T03:24:53;98772.56;;;8.01;48.19
6532;BME280;3299;42.004;24.868;2023-02-18T03:27:23;98756.03;;;7.89;48.24
6532;BME280;3299;42.004;24.868;2023-02-18T03:29:55;98803.09;;;8.25;48.15
6532;BME280;3299;42.004;24.868;2023-02-18T03:32:23;98795.34;;;8.25;48.25
6532;BME280;3299;42.004;24.868;2023-02-18T03:34:54;98734.31;;;7.93;48.67
6532;BME280;3299;42.004;24.868;2023-02-18T03:37:21;98751.16;;;8.00;48.67
6532;BME280;3299;42.004;24.868;2023-02-18T03:39:50;98769.00;;;8.03;49.16
6532;BME280;3299;42.004;24.868;2023-02-18T03:42:17;98774.72;;;7.93;49.57
6532;BME280;3299;42.004;24.868;2023-02-18T03:44:43;98730.19;;;7.58;49.52
6532;BME280;3299;42.004;24.868;2023-02-18T03:47:10;98776.78;;;7.86;49.63
6532;BME280;3299;42.004;24.868;2023-02-18T03:49:35;98699.88;;;7.31;49.83
6532;BME280;3299;42.004;24.868;2023-02-18T03:52:01;98744.56;;;7.62;49.43
6532;BME280;3299;42.004;24.868;2023-02-18T03:54:26;98798.28;;;8.02;49.22
6532;BME280;3299;42.004;24.868;2023-02-18T03:56:51;98764.63;;;7.73;49.35
6532;BME280;3299;42.004;24.868;2023-02-18T03:59:17;98804.00;;;7.92;49.35
6532;BME280;3299;42.004;24.868;2023-02-18T04:01:42;98791.88;;;7.77;49.67
6532;BME280;3299;42.004;24.868;2023-02-18T04:04:08;98827.69;;;7.98;49.26
6532;BME280;3299;42.004;24.868;2023-02-18T04:06:33;98840.09;;;8.07;49.12
6532;BME280;3299;42.004;24.868;2023-02-18T04:09:01;98826.03;;;7.97;49.26
6532;BME280;3299;42.004;24.868;2023-02-18T04:11:34;98828.00;;;7.92;49.50
6532;BME280;3299;42.004;24.868;2023-02-18T04:13:59;98734.50;;;7.25;49.71
6532;BME280;3299;42.004;24.868;2023-02-18T04:16:25;98799.09;;;7.70;49.94
6532;BME280;3299;42.004;24.868;2023-02-18T04:18:50;98780.78;;;7.59;50.16
6532;BME280;3299;42.004;24.868;2023-02-18T04:21:16;98782.47;;;7.43;50.37
6532;BME280;3299;42.004;24.868;2023-02-18T04:23:41;98772.47;;;7.37;50.19
6532;BME280;3299;42.004;24.868;2023-02-18T04:26:06;98839.22;;;7.74;50.57
6532;BME280;3299;42.004;24.868;2023-02-18T04:28:32;98836.97;;;7.68;50.56
6532;BME280;3299;42.004;24.868;2023-02-18T04:30:57;98804.09;;;7.56;50.09
6532;BME280;3299;42.004;24.868;2023-02-18T04:33:23;98796.56;;;7.53;49.49
6532;BME280;3299;42.004;24.868;2023-02-18T04:35:48;98827.06;;;7.93;48.50
6532;BME280;3299;42.004;24.868;2023-02-18T04:38:13;98826.88;;;7.98;48.50
6532;BME280;3299;42.004;24.868;2023-02-18T04:40:39;98788.53;;;7.92;48.21
6532;BME280;3299;42.004;24.868;2023-02-18T04:43:04;98826.72;;;8.33;46.98
6532;BME280;3299;42.004;24.868;2023-02-18T04:45:30;98750.97;;;8.03;46.85
6532;BME280;3299;42.004;24.868;2023-02-18T04:47:55;98815.06;;;8.57;46.25
6532;BME280;3299;42.004;24.868;2023-02-18T04:50:21;98793.44;;;8.60;46.23
6532;BME280;3299;42.004;24.868;2023-02-18T04:52:47;98847.53;;;8.92;46.24
6532;BME280;3299;42.004;24.868;2023-02-18T04:55:13;98737.41;;;8.32;45.82
6532;BME280;3299;42.004;24.868;2023-02-18T04:57:38;98840.03;;;9.03;45.73
6532;BME280;3299;42.004;24.868;2023-02-18T05:00:08;98787.13;;;8.81;46.80
6532;BME280;3299;42.004;24.868;2023-02-18T05:02:37;98847.63;;;9.06;46.47
6532;BME280;3299;42.004;24.868;2023-02-18T05:05:02;98839.88;;;9.06;47.00
6532;BME280;3299;42.004;24.868;2023-02-18T05:07:28;98753.44;;;8.53;47.05
6532;BME280;3299;42.004;24.868;2023-02-18T05:09:53;98839.63;;;8.95;47.30
6532;BME280;3299;42.004;24.868;2023-02-18T05:12:18;98851.69;;;8.95;47.86
6532;BME280;3299;42.004;24.868;2023-02-18T05:14:44;98806.94;;;8.65;47.83
6532;BME280;3299;42.004;24.868;2023-02-18T05:17:09;98821.25;;;8.70;47.97
6532;BME280;3299;42.004;24.868;2023-02-18T05:19:35;98849.72;;;8.84;47.97
6532;BME280;3299;42.004;24.868;2023-02-18T05:22:00;98757.44;;;8.27;47.51
6532;BME280;3299;42.004;24.868;2023-02-18T05:24:26;98839.38;;;8.84;46.83
6532;BME280;3299;42.004;24.868;2023-02-18T05:26:51;98838.53;;;8.68;47.56
6532;BME280;3299;42.004;24.868;2023-02-18T05:29:16;98781.00;;;8.52;46.21
6532;BME280;3299;42.004;24.868;2023-02-18T05:31:42;98830.56;;;9.04;44.82
6532;BME280;3299;42.004;24.868;2023-02-18T05:34:07;98776.47;;;8.71;46.05
6532;BME280;3299;42.004;24.868;2023-02-18T05:36:33;98729.56;;;8.49;45.79
6532;BME280;3299;42.004;24.868;2023-02-18T05:38:58;98760.31;;;8.83;44.93
6532;BME280;3299;42.004;24.868;2023-02-18T05:41:23;98804.97;;;9.44;42.28
6532;BME280;3299;42.004;24.868;2023-02-18T05:43:49;98756.97;;;9.26;44.20
6532;BME280;3299;42.004;24.868;2023-02-18T05:46:33;98788.41;;;9.76;41.82
6532;BME280;3299;42.004;24.868;2023-02-18T05:48:58;98778.00;;;9.91;41.63
6532;BME280;3299;42.004;24.868;2023-02-18T05:51:24;98769.78;;;9.99;41.22
6532;BME280;3299;42.004;24.868;2023-02-18T05:53:49;98789.00;;;10.23;41.07
6532;BME280;3299;42.004;24.868;2023-02-18T05:56:15;98807.66;;;10.28;41.52
6532;BME280;3299;42.004;24.868;2023-02-18T05:58:40;98824.19;;;10.39;40.55
6532;BME280;3299;42.004;24.868;2023-02-18T06:01:05;98822.50;;;10.52;40.58
6532;BME280;3299;42.004;24.868;2023-02-18T06:03:31;98767.03;;;10.30;40.49
6532;BME280;3299;42.004;24.868;2023-02-18T06:05:56;98831.91;;;10.67;40.74
6532;BME280;3299;42.004;24.868;2023-02-18T06:08:22;98840.94;;;10.74;40.70
6532;BME280;3299;42.004;24.868;2023-02-18T06:10:47;98838.84;;;10.67;41.00
6532;BME280;3299;42.004;24.868;2023-02-18T06:13:12;98787.31;;;10.36;41.14
6532;BME280;3299;42.004;24.868;2023-02-18T06:15:38;98842.19;;;10.69;41.23
6532;BME280;3299;42.004;24.868;2023-02-18T06:18:04;98793.78;;;10.43;41.08
6532;BME280;3299;42.004;24.868;2023-02-18T06:20:31;98732.59;;;10.01;41.30
6532;BME280;3299;42.004;24.868;2023-02-18T06:22:56;98833.13;;;10.48;41.73
6532;BME280;3299;42.004;24.868;2023-02-18T06:25:21;98782.91;;;10.24;42.12
6532;BME280;3299;42.004;24.868;2023-02-18T06:27:47;98795.28;;;10.33;41.83
6532;BME280;3299;42.004;24.868;2023-02-18T06:30:12;98827.78;;;10.51;42.25
6532;BME280;3299;42.004;24.868;2023-02-18T06:32:38;98817.69;;;10.46;42.16
6532;BME280;3299;42.004;24.868;2023-02-18T06:35:03;98831.41;;;10.48;42.45
6532;BME280;3299;42.004;24.868;2023-02-18T06:37:29;98802.13;;;10.20;42.71
6532;BME280;3299;42.004;24.868;2023-02-18T06:39:54;98855.13;;;10.41;43.16
6532;BME280;3299;42.004;24.868;2023-02-18T06:42:20;98801.44;;;10.02;43.34
6532;BME280;3299;42.004;24.868;2023-02-18T06:44:45;98824.28;;;10.24;43.08
6532;BME280;3299;42.004;24.868;2023-02-18T06:47:10;98798.06;;;10.16;42.11
6532;BME280;3299;42.004;24.868;2023-02-18T06:49:36;98793.25;;;10.24;42.31
6532;BME280;3299;42.004;24.868;2023-02-18T06:52:03;98835.28;;;10.41;42.98
6532;BME280;3299;42.004;24.868;2023-02-18T06:54:28;98809.41;;;10.27;42.43
6532;BME280;3299;42.004;24.868;2023-02-18T06:56:54;98829.63;;;10.49;42.44
6532;BME280;3299;42.004;24.868;2023-02-18T06:59:19;98780.53;;;10.21;42.26
6532;BME280;3299;42.004;24.868;2023-02-18T07:01:45;98849.31;;;10.65;42.10
6532;BME280;3299;42.004;24.868;2023-02-18T07:04:10;98770.78;;;10.38;41.87
6532;BME280;3299;42.004;24.868;2023-02-18T07:06:35;98832.06;;;10.78;41.77
6532;BME280;3299;42.004;24.868;2023-02-18T07:09:01;98730.09;;;10.28;42.21
6532;BME280;3299;42.004;24.868;2023-02-18T07:11:26;98763.06;;;10.65;41.20
6532;BME280;3299;42.004;24.868;2023-02-18T07:13:52;98782.88;;;11.05;41.32
6532;BME280;3299;42.004;24.868;2023-02-18T07:16:17;98795.59;;;11.22;40.92
6532;BME280;3299;42.004;24.868;2023-02-18T07:18:42;98730.69;;;11.11;40.34
6532;BME280;3299;42.004;24.868;2023-02-18T07:21:08;98766.69;;;11.67;39.18
6532;BME280;3299;42.004;24.868;2023-02-18T07:23:33;98725.06;;;11.56;38.90
6532;BME280;3299;42.004;24.868;2023-02-18T07:26:06;98751.31;;;12.01;38.06
6532;BME280;3299;42.004;24.868;2023-02-18T07:28:32;98761.63;;;12.26;38.20
6532;BME280;3299;42.004;24.868;2023-02-18T07:30:57;98734.56;;;12.18;38.46
6532;BME280;3299;42.004;24.868;2023-02-18T07:33:23;98723.47;;;12.16;38.66
6532;BME280;3299;42.004;24.868;2023-02-18T07:35:55;98765.94;;;12.51;38.38
6532;BME280;3299;42.004;24.868;2023-02-18T07:38:21;98794.91;;;12.81;38.73
6532;BME280;3299;42.004;24.868;2023-02-18T07:40:48;98754.69;;;12.63;39.03
6532;BME280;3299;42.004;24.868;2023-02-18T07:43:14;98763.16;;;12.77;39.16
6532;BME280;3299;42.004;24.868;2023-02-18T07:45:39;98828.19;;;13.12;38.95
6532;BME280;3299;42.004;24.868;2023-02-18T07:48:05;98758.06;;;12.76;38.25
6532;BME280;3299;42.004;24.868;2023-02-18T07:50:31;98754.91;;;12.83;38.58
6532;BME280;3299;42.004;24.868;2023-02-18T07:53:02;98753.19;;;12.71;39.12
6532;BME280;3299;42.004;24.868;2023-02-18T07:55:27;98792.28;;;12.93;39.37
6532;BME280;3299;42.004;24.868;2023-02-18T07:58:20;98779.72;;;13.00;39.35
6532;BME280;3299;42.004;24.868;2023-02-18T08:00:46;98685.22;;;12.43;39.55
6532;BME280;3299;42.004;24.868;2023-02-18T08:03:15;98770.66;;;12.93;39.41
6532;BME280;3299;42.004;24.868;2023-02-18T08:05:43;98756.34;;;12.87;39.54
6532;BME280;3299;42.004;24.868;2023-02-18T08:08:12;98756.03;;;12.92;39.41
6532;BME280;3299;42.004;24.868;2023-02-18T08:10:38;98752.47;;;12.93;39.22
6532;BME280;3299;42.004;24.868;2023-02-18T08:13:04;98721.84;;;12.74;39.12
6532;BME280;3299;42.004;24.868;2023-02-18T08:15:29;98693.81;;;12.67;39.16
6532;BME280;3299;42.004;24.868;2023-02-18T08:17:54;98708.91;;;12.85;38.98
6532;BME280;3299;42.004;24.868;2023-02-18T08:20:20;98727.03;;;12.98;38.65
6532;BME280;3299;42.004;24.868;2023-02-18T08:22:48;98735.56;;;13.11;38.42
6532;BME280;3299;42.004;24.868;2023-02-18T08:25:14;98743.56;;;13.31;37.43
6532;BME280;3299;42.004;24.868;2023-02-18T08:27:39;98785.81;;;13.57;36.79
6532;BME280;3299;42.004;24.868;2023-02-18T08:30:05;98747.75;;;13.56;36.24
6532;BME280;3299;42.004;24.868;2023-02-18T08:32:31;98790.25;;;13.78;36.49
6532;BME280;3299;42.004;24.868;2023-02-18T08:34:56;98798.06;;;13.89;36.56
6532;BME280;3299;42.004;24.868;2023-02-18T08:37:22;98777.13;;;13.91;36.17
6532;BME280;3299;42.004;24.868;2023-02-18T08:39:48;98739.31;;;13.76;36.30
6532;BME280;3299;42.004;24.868;2023-02-18T08:42:13;98735.88;;;13.86;35.99
6532;BME280;3299;42.004;24.868;2023-02-18T08:44:39;98776.25;;;14.25;36.01
6532;BME280;3299;42.004;24.868;2023-02-18T08:47:04;98732.91;;;14.02;36.14
6532;BME280;3299;42.004;24.868;2023-02-18T08:49:29;98721.81;;;14.00;36.16
6532;BME280;3299;42.004;24.868;2023-02-18T08:51:55;98771.88;;;14.25;36.49
6532;BME280;3299;42.004;24.868;2023-02-18T08:54:20;98727.25;;;13.97;36.50
6532;BME280;3299;42.004;24.868;2023-02-18T08:56:46;98782.63;;;14.21;36.13
6532;BME280;3299;42.004;24.868;2023-02-18T08:59:12;98716.03;;;13.96;36.25
6532;BME280;3299;42.004;24.868;2023-02-18T09:01:37;98722.97;;;14.18;36.02
6532;BME280;3299;42.004;24.868;2023-02-18T09:04:02;98771.50;;;14.52;36.05
6532;BME280;3299;42.004;24.868;2023-02-18T09:06:28;98691.75;;;14.07;35.66
6532;BME280;3299;42.004;24.868;2023-02-18T09:08:54;98791.09;;;14.78;35.05
6532;BME280;3299;42.004;24.868;2023-02-18T09:11:20;98748.53;;;14.57;34.71
6532;BME280;3299;42.004;24.868;2023-02-18T09:13:46;98727.56;;;14.47;34.24
6532;BME280;3299;42.004;24.868;2023-02-18T09:16:14;98696.72;;;14.32;34.43
6532;BME280;3299;42.004;24.868;2023-02-18T09:18:43;98772.63;;;14.81;33.90
6532;BME280;3299;42.004;24.868;2023-02-18T09:21:11;98793.88;;;14.97;34.48
6532;BME280;3299;42.004;24.868;2023-02-18T09:23:37;98745.75;;;14.69;34.55
6532;BME280;3299;42.004;24.868;2023-02-18T09:26:04;98748.09;;;14.83;34.24
6532;BME280;3299;42.004;24.868;2023-02-18T09:28:30;98745.59;;;14.93;34.19
6532;BME280;3299;42.004;24.868;2023-02-18T09:30:55;98775.03;;;15.36;34.03
6532;BME280;3299;42.004;24.868;2023-02-18T09:33:21;98749.53;;;15.39;34.14
6532;BME280;3299;42.004;24.868;2023-02-18T09:35:47;98718.44;;;15.27;33.80
6532;BME280;3299;42.004;24.868;2023-02-18T09:38:15;98758.44;;;15.57;33.53
6532;BME280;3299;42.004;24.868;2023-02-18T09:40:45;98716.22;;;15.43;33.61
6532;BME280;3299;42.004;24.868;2023-02-18T09:45:47;98699.94;;;15.50;33.87
6532;BME280;3299;42.004;24.868;2023-02-18T09:48:13;98696.81;;;15.56;33.71
6532;BME280;3299;42.004;24.868;2023-02-18T09:50:39;98686.25;;;15.58;33.91
6532;BME280;3299;42.004;24.868;2023-02-18T09:53:04;98737.59;;;15.87;33.87
6532;BME280;3299;42.004;24.868;2023-02-18T09:55:35;98754.03;;;15.99;33.43
6532;BME280;3299;42.004;24.868;2023-02-18T09:58:10;98727.69;;;15.81;33.60
6532;BME280;3299;42.004;24.868;2023-02-18T10:00:42;98757.00;;;16.15;31.23
6532;BME280;3299;42.004;24.868;2023-02-18T10:03:14;98707.81;;;15.90;31.19
6532;BME280;3299;42.004;24.868;2023-02-18T10:05:50;98713.91;;;16.00;31.20
6532;BME280;3299;42.004;24.868;2023-02-18T10:08:22;98711.75;;;16.05;30.51
6532;BME280;3299;42.004;24.868;2023-02-18T10:10:49;98743.72;;;16.37;30.46
6532;BME280;3299;42.004;24.868;2023-02-18T10:13:19;98705.63;;;16.25;30.50
6532;BME280;3299;42.004;24.868;2023-02-18T10:15:46;98738.59;;;16.56;30.63
6532;BME280;3299;42.004;24.868;2023-02-18T10:18:34;98651.31;;;16.19;30.42
6532;BME280;3299;42.004;24.868;2023-02-18T10:21:10;98687.16;;;16.66;29.89
6532;BME280;3299;42.004;24.868;2023-02-18T10:23:44;98714.03;;;16.96;30.06
6532;BME280;3299;42.004;24.868;2023-02-18T10:26:15;98661.63;;;16.79;29.90
6532;BME280;3299;42.004;24.868;2023-02-18T10:28:42;98683.34;;;17.08;29.94
6532;BME280;3299;42.004;24.868;2023-02-18T10:31:09;98690.88;;;17.20;30.08
6532;BME280;3299;42.004;24.868;2023-02-18T10:33:46;98657.75;;;17.11;30.25
6532;BME280;3299;42.004;24.868;2023-02-18T10:49:57;98672.94;;;17.63;30.07
6532;BME280;3299;42.004;24.868;2023-02-18T10:52:24;98674.56;;;17.74;30.26
6532;BME280;3299;42.004;24.868;2023-02-18T10:54:53;98666.34;;;17.96;29.73
6532;BME280;3299;42.004;24.868;2023-02-18T10:57:23;98616.25;;;17.81;29.81
6532;BME280;3299;42.004;24.868;2023-02-18T11:00:15;98616.47;;;17.88;29.60
6532;BME280;3299;42.004;24.868;2023-02-18T11:02:41;98656.31;;;18.18;29.81
6532;BME280;3299;42.004;24.868;2023-02-18T11:05:25;98562.59;;;17.68;29.98
6532;BME280;3299;42.004;24.868;2023-02-18T11:07:55;98586.44;;;17.92;29.79
6532;BME280;3299;42.004;24.868;2023-02-18T11:10:33;98597.38;;;18.05;30.03
6532;BME280;3299;42.004;24.868;2023-02-18T11:13:03;98630.72;;;18.39;30.05
6532;BME280;3299;42.004;24.868;2023-02-18T11:15:30;98630.03;;;18.72;30.08
6532;BME280;3299;42.004;24.868;2023-02-18T11:18:10;98577.78;;;18.71;29.96
6532;BME280;3299;42.004;24.868;2023-02-18T11:20:37;98592.09;;;19.02;30.30
6532;BME280;3299;42.004;24.868;2023-02-18T11:25:36;98622.09;;;19.76;30.11
6532;BME280;3299;42.004;24.868;2023-02-18T11:28:30;98619.84;;;19.89;29.70
6532;BME280;3299;42.004;24.868;2023-02-18T11:30:59;98611.66;;;19.92;29.34
6532;BME280;3299;42.004;24.868;2023-02-18T11:33:39;98615.75;;;19.86;29.38
6532;BME280;3299;42.004;24.868;2023-02-18T11:36:18;98619.47;;;19.76;29.88
6532;BME280;3299;42.004;24.868;2023-02-18T11:38:49;98583.53;;;19.43;29.44
6532;BME280;3299;42.004;24.868;2023-02-18T11:41:21;98632.41;;;19.69;28.99
6532;BME280;3299;42.004;24.868;2023-02-18T11:43:53;98568.75;;;19.42;28.84
6532;BME280;3299;42.004;24.868;2023-02-18T11:46:23;98622.13;;;19.84;29.08
6532;BME280;3299;42.004;24.868;2023-02-18T11:48:50;98624.25;;;19.80;29.01
6532;BME280;3299;42.004;24.868;2023-02-18T11:51:33;98590.50;;;19.60;29.18
6532;BME280;3299;42.004;24.868;2023-02-18T11:54:04;98611.25;;;19.71;29.49
6532;BME280;3299;42.004;24.868;2023-02-18T11:56:35;98601.53;;;19.63;30.20
6532;BME280;3299;42.004;24.868;2023-02-18T11:59:02;98601.00;;;19.60;30.54
6532;BME280;3299;42.004;24.868;2023-02-18T12:01:34;98601.00;;;19.60;31.00
6532;BME280;3299;42.004;24.868;2023-02-18T12:09:31;98584.34;;;19.69;30.79
6532;BME280;3299;42.004;24.868;2023-02-18T12:12:14;98578.13;;;19.78;30.43
6532;BME280;3299;42.004;24.868;2023-02-18T12:14:42;98543.47;;;19.66;30.29
6532;BME280;3299;42.004;24.868;2023-02-18T12:19:54;98573.16;;;20.08;30.49
6532;BME280;3299;42.004;24.868;2023-02-18T12:28:39;98574.06;;;20.49;30.97
6532;BME280;3299;42.004;24.868;2023-02-18T12:33:57;98526.75;;;20.41;31.05
6532;BME280;3299;42.004;24.868;2023-02-18T12:47:07;98551.03;;;20.43;30.09
6532;BME280;3299;42.004;24.868;2023-02-18T12:52:57;98504.13;;;19.90;30.48
6532;BME280;3299;42.004;24.868;2023-02-18T12:58:29;98534.88;;;20.06;30.71
6532;BME280;3299;42.004;24.868;2023-02-18T13:01:05;98545.69;;;20.03;30.65
6532;BME280;3299;42.004;24.868;2023-02-18T13:09:02;98528.44;;;20.00;30.57
6532;BME280;3299;42.004;24.868;2023-02-18T13:14:17;98524.81;;;19.93;31.09
6532;BME280;3299;42.004;24.868;2023-02-18T13:16:46;98446.41;;;19.49;31.17
6532;BME280;3299;42.004;24.868;2023-02-18T13:19:29;98529.75;;;19.96;31.30
6532;BME280;3299;42.004;24.868;2023-02-18T13:21:59;98523.03;;;20.02;31.12
6532;BME280;3299;42.004;24.868;2023-02-18T13:24:32;98518.28;;;20.05;31.04
6532;BME280;3299;42.004;24.868;2023-02-18T13:27:25;98485.56;;;19.84;30.93
6532;BME280;3299;42.004;24.868;2023-02-18T13:32:32;98511.84;;;19.92;31.54
6532;BME280;3299;42.004;24.868;2023-02-18T13:40:44;98511.13;;;19.74;31.40
6532;BME280;3299;42.004;24.868;2023-02-18T13:43:30;98532.81;;;19.76;31.70
6532;BME280;3299;42.004;24.868;2023-02-18T13:46:14;98535.41;;;19.68;31.63
6532;BME280;3299;42.004;24.868;2023-02-18T13:51:30;98526.63;;;19.43;32.25
6532;BME280;3299;42.004;24.868;2023-02-18T13:54:04;98523.50;;;19.40;32.27
6532;BME280;3299;42.004;24.868;2023-02-18T13:56:41;98493.16;;;19.12;32.55
6532;BME280;3299;42.004;24.868;2023-02-18T13:59:17;98528.19;;;19.28;31.98
6532;BME280;3299;42.004;24.868;2023-02-18T14:07:37;98518.41;;;19.13;32.49
6532;BME280;3299;42.004;24.868;2023-02-18T14:12:40;98510.81;;;19.10;32.67
6532;BME280;3299;42.004;24.868;2023-02-18T14:23:11;98528.78;;;18.97;32.25
6532;BME280;3299;42.004;24.868;2023-02-18T14:25:40;98479.38;;;18.59;32.68
6532;BME280;3299;42.004;24.868;2023-02-18T14:31:02;98538.88;;;18.84;32.38
6532;BME280;3299;42.004;24.868;2023-02-18T14:33:31;98524.03;;;18.75;32.60
6532;BME280;3299;42.004;24.868;2023-02-18T14:38:45;98536.19;;;18.76;32.74
6532;BME280;3299;42.004;24.868;2023-02-18T14:52:33;98487.50;;;18.13;33.92
6532;BME280;3299;42.004;24.868;2023-02-18T14:55:00;98491.38;;;18.26;33.58
6532;BME280;3299;42.004;24.868;2023-02-18T15:00:00;98517.63;;;18.17;34.17
6532;BME280;3299;42.004;24.868;2023-02-18T15:02:27;98519.97;;;18.20;34.48
6532;BME280;3299;42.004;24.868;2023-02-18T15:05:10;98524.16;;;18.13;34.33
6532;BME280;3299;42.004;24.868;2023-02-18T15:07:36;98520.69;;;17.95;35.12
6532;BME280;3299;42.004;24.868;2023-02-18T15:10:02;98475.03;;;17.62;34.58
6532;BME280;3299;42.004;24.868;2023-02-18T15:12:27;98499.19;;;17.74;34.55
6532;BME280;3299;42.004;24.868;2023-02-18T15:14:57;98517.19;;;17.86;35.69
6532;BME280;3299;42.004;24.868;2023-02-18T15:17:26;98522.47;;;17.77;35.25
6532;BME280;3299;42.004;24.868;2023-02-18T15:19:56;98477.31;;;17.48;36.04
6532;BME280;3299;42.004;24.868;2023-02-18T15:22:28;98462.56;;;17.20;37.00
6532;BME280;3299;42.004;24.868;2023-02-18T15:24:56;98485.38;;;17.27;37.36
6532;BME280;3299;42.004;24.868;2023-02-18T15:27:29;98509.59;;;17.29;37.73
6532;BME280;3299;42.004;24.868;2023-02-18T15:32:37;98505.59;;;16.98;38.52
6532;BME280;3299;42.004;24.868;2023-02-18T15:35:14;98503.69;;;16.91;38.51
6532;BME280;3299;42.004;24.868;2023-02-18T15:37:43;98464.97;;;16.58;38.59
6532;BME280;3299;42.004;24.868;2023-02-18T15:40:15;98513.91;;;16.75;38.98
6532;BME280;3299;42.004;24.868;2023-02-18T15:42:41;98508.00;;;16.73;38.71
6532;BME280;3299;42.004;24.868;2023-02-18T15:48:23;98458.00;;;16.49;38.01
6532;BME280;3299;42.004;24.868;2023-02-18T15:50:54;98481.16;;;16.71;36.79
6532;BME280;3299;42.004;24.868;2023-02-18T15:53:20;98511.94;;;16.96;36.70
6532;BME280;3299;42.004;24.868;2023-02-18T15:55:48;98463.00;;;16.79;36.50